sensor_id;sensor_type;location;lat;lon;timestamp;temperature;humidity
39751;DHT22;37579;51.074;17.004;2023-04-03T00:01:35;23.90;55.70
39751;DHT22;37579;51.074;17.004;2023-04-03T00:04:01;23.90;55.60
39751;DHT22;37579;51.074;17.004;2023-04-03T00:06:27;23.90;55.60
39751;DHT22;37579;51.074;17.004;2023-04-03T00:08:53;23.90;55.70
39751;DHT22;37579;51.074;17.004;2023-04-03T00:11:19;23.90;55.50
39751;DHT22;37579;51.074;17.004;2023-04-03T00:13:46;23.90;55.50
39751;DHT22;37579;51.074;17.004;2023-04-03T00:16:12;23.90;55.40
39751;DHT22;37579;51.074;17.004;2023-04-03T00:18:38;23.90;55.40
39751;DHT22;37579;51.074;17.004;2023-04-03T00:21:05;23.90;55.40
39751;DHT22;37579;51.074;17.004;2023-04-03T00:23:31;23.90;55.30
39751;DHT22;37579;51.074;17.004;2023-04-03T00:25:57;23.90;55.30
39751;DHT22;37579;51.074;17.004;2023-04-03T00:28:23;23.90;55.20
39751;DHT22;37579;51.074;17.004;2023-04-03T00:30:50;23.90;55.20
39751;DHT22;37579;51.074;17.004;2023-04-03T00:33:16;23.90;55.30
39751;DHT22;37579;51.074;17.004;2023-04-03T00:35:42;23.90;55.20
39751;DHT22;37579;51.074;17.004;2023-04-03T00:38:08;23.90;55.30
39751;DHT22;37579;51.074;17.004;2023-04-03T00:40:36;23.90;55.20
39751;DHT22;37579;51.074;17.004;2023-04-03T00:43:12;23.90;55.30
39751;DHT22;37579;51.074;17.004;2023-04-03T00:45:41;23.90;55.30
39751;DHT22;37579;51.074;17.004;2023-04-03T00:48:44;23.90;55.30
39751;DHT22;37579;51.074;17.004;2023-04-03T00:51:04;23.90;55.30
39751;DHT22;37579;51.074;17.004;2023-04-03T00:53:44;23.90;55.30
39751;DHT22;37579;51.074;17.004;2023-04-03T00:56:13;23.90;55.20
39751;DHT22;37579;51.074;17.004;2023-04-03T00:58:45;23.90;55.20
39751;DHT22;37579;51.074;17.004;2023-04-03T01:01:16;23.80;55.30
39751;DHT22;37579;51.074;17.004;2023-04-03T01:03:44;23.90;55.30
39751;DHT22;37579;51.074;17.004;2023-04-03T01:06:10;23.80;55.20
39751;DHT22;37579;51.074;17.004;2023-04-03T01:08:36;23.80;55.20
39751;DHT22;37579;51.074;17.004;2023-04-03T01:11:03;23.80;55.10
39751;DHT22;37579;51.074;17.004;2023-04-03T01:13:31;23.90;55.10
39751;DHT22;37579;51.074;17.004;2023-04-03T01:16:03;23.90;55.10
39751;DHT22;37579;51.074;17.004;2023-04-03T01:18:30;23.80;55.00
39751;DHT22;37579;51.074;17.004;2023-04-03T01:26:41;23.80;55.10
39751;DHT22;37579;51.074;17.004;2023-04-03T01:29:08;23.80;55.10
39751;DHT22;37579;51.074;17.004;2023-04-03T01:31:52;23.80;55.10
39751;DHT22;37579;51.074;17.004;2023-04-03T01:34:18;23.80;55.10
39751;DHT22;37579;51.074;17.004;2023-04-03T01:36:44;23.80;55.10
39751;DHT22;37579;51.074;17.004;2023-04-03T01:39:11;23.80;55.00
39751;DHT22;37579;51.074;17.004;2023-04-03T01:41:37;23.80;55.00
39751;DHT22;37579;51.074;17.004;2023-04-03T01:44:12;23.70;55.00
39751;DHT22;37579;51.074;17.004;2023-04-03T01:46:38;23.70;55.00
39751;DHT22;37579;51.074;17.004;2023-04-03T01:49:04;23.70;55.00
39751;DHT22;37579;51.074;17.004;2023-04-03T01:51:30;23.70;55.20
39751;DHT22;37579;51.074;17.004;2023-04-03T01:53:56;23.60;55.10
39751;DHT22;37579;51.074;17.004;2023-04-03T01:56:22;23.70;55.10
39751;DHT22;37579;51.074;17.004;2023-04-03T01:58:49;23.60;55.10
39751;DHT22;37579;51.074;17.004;2023-04-03T02:01:16;23.60;55.00
39751;DHT22;37579;51.074;17.004;2023-04-03T02:03:41;23.60;55.20
39751;DHT22;37579;51.074;17.004;2023-04-03T02:06:07;23.60;55.00
39751;DHT22;37579;51.074;17.004;2023-04-03T02:08:33;23.60;55.10
39751;DHT22;37579;51.074;17.004;2023-04-03T02:10:59;23.60;55.10
39751;DHT22;37579;51.074;17.004;2023-04-03T02:13:25;23.60;55.20
39751;DHT22;37579;51.074;17.004;2023-04-03T02:15:51;23.60;55.20
39751;DHT22;37579;51.074;17.004;2023-04-03T02:18:17;23.60;55.10
39751;DHT22;37579;51.074;17.004;2023-04-03T02:20:43;23.60;55.10
39751;DHT22;37579;51.074;17.004;2023-04-03T02:23:09;23.60;55.20
39751;DHT22;37579;51.074;17.004;2023-04-03T02:25:35;23.50;55.30
39751;DHT22;37579;51.074;17.004;2023-04-03T02:28:01;23.50;55.40
39751;DHT22;37579;51.074;17.004;2023-04-03T02:30:27;23.50;55.50
39751;DHT22;37579;51.074;17.004;2023-04-03T02:32:53;23.50;55.60
39751;DHT22;37579;51.074;17.004;2023-04-03T02:35:19;23.40;55.50
39751;DHT22;37579;51.074;17.004;2023-04-03T02:37:45;23.50;55.60
39751;DHT22;37579;51.074;17.004;2023-04-03T02:40:11;23.50;55.50
39751;DHT22;37579;51.074;17.004;2023-04-03T02:42:37;23.50;55.50
39751;DHT22;37579;51.074;17.004;2023-04-03T02:45:04;23.50;55.40
39751;DHT22;37579;51.074;17.004;2023-04-03T02:47:31;23.50;55.40
39751;DHT22;37579;51.074;17.004;2023-04-03T02:49:57;23.40;55.30
39751;DHT22;37579;51.074;17.004;2023-04-03T02:52:23;23.40;55.40
39751;DHT22;37579;51.074;17.004;2023-04-03T02:54:50;23.50;55.30
39751;DHT22;37579;51.074;17.004;2023-04-03T02:57:16;23.50;55.20
39751;DHT22;37579;51.074;17.004;2023-04-03T02:59:42;23.50;55.20
39751;DHT22;37579;51.074;17.004;2023-04-03T03:02:11;23.40;55.40
39751;DHT22;37579;51.074;17.004;2023-04-03T03:04:37;23.40;55.30
39751;DHT22;37579;51.074;17.004;2023-04-03T03:07:03;23.40;55.30
39751;DHT22;37579;51.074;17.004;2023-04-03T03:09:29;23.40;55.20
39751;DHT22;37579;51.074;17.004;2023-04-03T03:14:22;23.40;54.70
39751;DHT22;37579;51.074;17.004;2023-04-03T03:16:48;23.40;55.10
39751;DHT22;37579;51.074;17.004;2023-04-03T03:19:14;23.40;55.10
39751;DHT22;37579;51.074;17.004;2023-04-03T03:21:40;23.40;55.20
39751;DHT22;37579;51.074;17.004;2023-04-03T03:24:06;23.40;55.20
39751;DHT22;37579;51.074;17.004;2023-04-03T03:26:32;23.30;55.20
39751;DHT22;37579;51.074;17.004;2023-04-03T03:28:58;23.30;55.20
39751;DHT22;37579;51.074;17.004;2023-04-03T03:31:24;23.40;55.20
39751;DHT22;37579;51.074;17.004;2023-04-03T03:33:50;23.40;55.50
39751;DHT22;37579;51.074;17.004;2023-04-03T03:36:15;23.50;54.70
39751;DHT22;37579;51.074;17.004;2023-04-03T03:38:41;23.50;54.60
39751;DHT22;37579;51.074;17.004;2023-04-03T03:41:08;23.50;54.60
39751;DHT22;37579;51.074;17.004;2023-04-03T03:43:34;23.60;54.40
39751;DHT22;37579;51.074;17.004;2023-04-03T03:46:02;23.70;54.20
39751;DHT22;37579;51.074;17.004;2023-04-03T03:48:28;23.70;54.10
39751;DHT22;37579;51.074;17.004;2023-04-03T03:50:54;23.80;54.00
39751;DHT22;37579;51.074;17.004;2023-04-03T03:53:24;23.80;53.90
39751;DHT22;37579;51.074;17.004;2023-04-03T03:55:53;23.80;53.90
39751;DHT22;37579;51.074;17.004;2023-04-03T03:58:21;23.80;53.90
39751;DHT22;37579;51.074;17.004;2023-04-03T04:00:47;23.80;53.90
39751;DHT22;37579;51.074;17.004;2023-04-03T04:03:13;23.80;53.80
39751;DHT22;37579;51.074;17.004;2023-04-03T04:05:40;23.80;53.80
39751;DHT22;37579;51.074;17.004;2023-04-03T04:08:05;23.80;53.70
39751;DHT22;37579;51.074;17.004;2023-04-03T04:10:34;23.80;53.60
39751;DHT22;37579;51.074;17.004;2023-04-03T04:13:01;23.80;53.60
39751;DHT22;37579;51.074;17.004;2023-04-03T04:15:28;23.80;53.50
39751;DHT22;37579;51.074;17.004;2023-04-03T04:17:56;23.80;53.40
39751;DHT22;37579;51.074;17.004;2023-04-03T04:20:22;23.80;53.40
39751;DHT22;37579;51.074;17.004;2023-04-03T04:22:48;23.80;53.40
39751;DHT22;37579;51.074;17.004;2023-04-03T04:25:15;23.80;53.30
39751;DHT22;37579;51.074;17.004;2023-04-03T04:27:41;23.90;53.30
39751;DHT22;37579;51.074;17.004;2023-04-03T04:30:10;23.90;53.20
39751;DHT22;37579;51.074;17.004;2023-04-03T04:32:36;23.90;53.20
39751;DHT22;37579;51.074;17.004;2023-04-03T04:35:03;23.90;53.10
39751;DHT22;37579;51.074;17.004;2023-04-03T04:37:31;23.90;53.10
39751;DHT22;37579;51.074;17.004;2023-04-03T04:39:58;23.90;53.70
39751;DHT22;37579;51.074;17.004;2023-04-03T04:42:24;23.90;53.00
39751;DHT22;37579;51.074;17.004;2023-04-03T04:44:50;23.90;53.00
39751;DHT22;37579;51.074;17.004;2023-04-03T04:47:16;23.90;53.00
39751;DHT22;37579;51.074;17.004;2023-04-03T04:49:42;23.90;52.90
39751;DHT22;37579;51.074;17.004;2023-04-03T04:52:09;23.90;52.90
39751;DHT22;37579;51.074;17.004;2023-04-03T04:54:35;23.90;52.80
39751;DHT22;37579;51.074;17.004;2023-04-03T04:57:01;24.00;52.70
39751;DHT22;37579;51.074;17.004;2023-04-03T04:59:28;24.00;52.70
39751;DHT22;37579;51.074;17.004;2023-04-03T05:01:56;23.90;52.60
39751;DHT22;37579;51.074;17.004;2023-04-03T05:04:22;24.00;52.60
39751;DHT22;37579;51.074;17.004;2023-04-03T05:06:53;24.00;52.60
39751;DHT22;37579;51.074;17.004;2023-04-03T05:09:23;24.10;52.90
39751;DHT22;37579;51.074;17.004;2023-04-03T05:11:50;24.10;53.10
39751;DHT22;37579;51.074;17.004;2023-04-03T05:14:18;24.20;52.80
39751;DHT22;37579;51.074;17.004;2023-04-03T05:16:44;24.20;52.90
39751;DHT22;37579;51.074;17.004;2023-04-03T05:19:10;24.20;52.80
39751;DHT22;37579;51.074;17.004;2023-04-03T05:21:37;24.20;52.70
39751;DHT22;37579;51.074;17.004;2023-04-03T05:24:08;24.30;52.60
39751;DHT22;37579;51.074;17.004;2023-04-03T05:26:37;24.30;52.60
39751;DHT22;37579;51.074;17.004;2023-04-03T05:29:04;24.30;52.50
39751;DHT22;37579;51.074;17.004;2023-04-03T05:31:30;24.30;52.60
39751;DHT22;37579;51.074;17.004;2023-04-03T05:33:57;24.30;52.60
39751;DHT22;37579;51.074;17.004;2023-04-03T05:36:23;24.30;52.70
39751;DHT22;37579;51.074;17.004;2023-04-03T05:38:54;24.40;52.70
39751;DHT22;37579;51.074;17.004;2023-04-03T05:41:22;24.40;52.70
39751;DHT22;37579;51.074;17.004;2023-04-03T05:43:49;24.40;51.00
39751;DHT22;37579;51.074;17.004;2023-04-03T05:46:18;24.40;51.40
39751;DHT22;37579;51.074;17.004;2023-04-03T05:48:47;24.40;51.30
39751;DHT22;37579;51.074;17.004;2023-04-03T05:51:25;24.50;51.00
39751;DHT22;37579;51.074;17.004;2023-04-03T05:54:02;24.60;51.80
39751;DHT22;37579;51.074;17.004;2023-04-03T05:56:29;24.60;51.30
39751;DHT22;37579;51.074;17.004;2023-04-03T05:58:55;24.70;51.20
39751;DHT22;37579;51.074;17.004;2023-04-03T06:01:22;24.80;51.30
39751;DHT22;37579;51.074;17.004;2023-04-03T06:03:49;25.00;50.90
39751;DHT22;37579;51.074;17.004;2023-04-03T06:06:15;25.50;49.30
39751;DHT22;37579;51.074;17.004;2023-04-03T06:08:41;25.80;49.20
39751;DHT22;37579;51.074;17.004;2023-04-03T06:11:07;26.20;48.20
39751;DHT22;37579;51.074;17.004;2023-04-03T06:13:34;25.90;48.40
39751;DHT22;37579;51.074;17.004;2023-04-03T06:16:00;25.70;49.00
39751;DHT22;37579;51.074;17.004;2023-04-03T06:18:27;25.70;49.10
39751;DHT22;37579;51.074;17.004;2023-04-03T06:20:54;25.80;49.20
39751;DHT22;37579;51.074;17.004;2023-04-03T06:23:20;25.70;49.30
39751;DHT22;37579;51.074;17.004;2023-04-03T06:25:46;25.40;49.90
39751;DHT22;37579;51.074;17.004;2023-04-03T06:28:12;25.20;50.90
39751;DHT22;37579;51.074;17.004;2023-04-03T06:30:38;25.20;50.40
39751;DHT22;37579;51.074;17.004;2023-04-03T06:33:04;25.20;50.60
39751;DHT22;37579;51.074;17.004;2023-04-03T06:35:30;25.20;50.30
39751;DHT22;37579;51.074;17.004;2023-04-03T06:37:56;25.20;50.30
39751;DHT22;37579;51.074;17.004;2023-04-03T06:40:24;25.20;50.60
39751;DHT22;37579;51.074;17.004;2023-04-03T06:42:51;25.10;50.60
39751;DHT22;37579;51.074;17.004;2023-04-03T06:45:18;25.10;50.80
39751;DHT22;37579;51.074;17.004;2023-04-03T06:47:44;25.10;50.70
39751;DHT22;37579;51.074;17.004;2023-04-03T06:50:11;25.10;50.80
39751;DHT22;37579;51.074;17.004;2023-04-03T06:52:39;25.10;50.50
39751;DHT22;37579;51.074;17.004;2023-04-03T06:55:06;25.10;50.70
39751;DHT22;37579;51.074;17.004;2023-04-03T06:57:32;25.10;51.00
39751;DHT22;37579;51.074;17.004;2023-04-03T06:59:58;25.00;50.90
39751;DHT22;37579;51.074;17.004;2023-04-03T07:02:23;25.00;51.10
39751;DHT22;37579;51.074;17.004;2023-04-03T07:04:49;25.00;51.20
39751;DHT22;37579;51.074;17.004;2023-04-03T07:07:15;25.00;51.00
39751;DHT22;37579;51.074;17.004;2023-04-03T07:09:43;25.00;51.30
39751;DHT22;37579;51.074;17.004;2023-04-03T07:12:08;24.90;51.30
39751;DHT22;37579;51.074;17.004;2023-04-03T07:14:34;24.90;51.10
39751;DHT22;37579;51.074;17.004;2023-04-03T07:17:00;24.90;51.20
39751;DHT22;37579;51.074;17.004;2023-04-03T07:19:26;24.90;51.20
39751;DHT22;37579;51.074;17.004;2023-04-03T07:21:53;24.90;51.40
39751;DHT22;37579;51.074;17.004;2023-04-03T07:24:20;24.90;51.40
39751;DHT22;37579;51.074;17.004;2023-04-03T07:26:52;24.80;51.70
39751;DHT22;37579;51.074;17.004;2023-04-03T07:29:18;25.00;52.00
39751;DHT22;37579;51.074;17.004;2023-04-03T07:31:47;25.00;51.90
39751;DHT22;37579;51.074;17.004;2023-04-03T07:34:13;25.00;52.70
39751;DHT22;37579;51.074;17.004;2023-04-03T07:36:39;25.00;52.10
39751;DHT22;37579;51.074;17.004;2023-04-03T07:39:05;25.10;52.00
39751;DHT22;37579;51.074;17.004;2023-04-03T07:41:32;25.10;51.90
39751;DHT22;37579;51.074;17.004;2023-04-03T07:43:58;25.10;52.00
39751;DHT22;37579;51.074;17.004;2023-04-03T07:46:24;25.10;52.00
39751;DHT22;37579;51.074;17.004;2023-04-03T07:48:50;25.00;52.10
39751;DHT22;37579;51.074;17.004;2023-04-03T07:51:15;25.00;52.40
39751;DHT22;37579;51.074;17.004;2023-04-03T07:53:41;25.00;52.40
39751;DHT22;37579;51.074;17.004;2023-04-03T07:56:07;25.10;52.60
39751;DHT22;37579;51.074;17.004;2023-04-03T07:58:33;25.10;52.40
39751;DHT22;37579;51.074;17.004;2023-04-03T08:00:59;25.10;52.60
39751;DHT22;37579;51.074;17.004;2023-04-03T08:03:25;25.10;52.60
39751;DHT22;37579;51.074;17.004;2023-04-03T08:05:51;25.10;52.50
39751;DHT22;37579;51.074;17.004;2023-04-03T08:08:21;25.10;52.50
39751;DHT22;37579;51.074;17.004;2023-04-03T08:10:52;25.10;52.60
39751;DHT22;37579;51.074;17.004;2023-04-03T08:13:19;25.10;52.50
39751;DHT22;37579;51.074;17.004;2023-04-03T08:15:46;25.20;52.50
39751;DHT22;37579;51.074;17.004;2023-04-03T08:18:12;25.20;52.40
39751;DHT22;37579;51.074;17.004;2023-04-03T08:20:38;25.20;52.50
39751;DHT22;37579;51.074;17.004;2023-04-03T08:23:07;25.20;52.50
39751;DHT22;37579;51.074;17.004;2023-04-03T08:25:34;25.20;52.40
39751;DHT22;37579;51.074;17.004;2023-04-03T08:28:00;25.20;52.60
39751;DHT22;37579;51.074;17.004;2023-04-03T08:30:27;25.10;52.50
39751;DHT22;37579;51.074;17.004;2023-04-03T08:32:53;25.20;52.60
39751;DHT22;37579;51.074;17.004;2023-04-03T08:35:19;25.10;52.50
39751;DHT22;37579;51.074;17.004;2023-04-03T08:37:45;25.10;52.60
39751;DHT22;37579;51.074;17.004;2023-04-03T08:40:16;25.20;52.70
39751;DHT22;37579;51.074;17.004;2023-04-03T08:50:19;25.00;52.70
39751;DHT22;37579;51.074;17.004;2023-04-03T08:52:52;25.00;52.80
39751;DHT22;37579;51.074;17.004;2023-04-03T08:55:37;24.90;53.00
39751;DHT22;37579;51.074;17.004;2023-04-03T08:58:26;24.70;43.70
39751;DHT22;37579;51.074;17.004;2023-04-03T09:00:59;24.00;41.30
39751;DHT22;37579;51.074;17.004;2023-04-03T09:03:30;24.30;50.20
39751;DHT22;37579;51.074;17.004;2023-04-03T09:06:02;24.40;50.20
39751;DHT22;37579;51.074;17.004;2023-04-03T09:11:21;24.40;50.30
39751;DHT22;37579;51.074;17.004;2023-04-03T09:16:56;24.40;50.60
39751;DHT22;37579;51.074;17.004;2023-04-03T09:22:07;24.40;50.80
39751;DHT22;37579;51.074;17.004;2023-04-03T09:24:37;24.40;51.00
39751;DHT22;37579;51.074;17.004;2023-04-03T09:27:10;24.40;51.00
39751;DHT22;37579;51.074;17.004;2023-04-03T09:29:40;24.40;51.10
39751;DHT22;37579;51.074;17.004;2023-04-03T09:32:30;24.40;51.10
39751;DHT22;37579;51.074;17.004;2023-04-03T09:35:10;24.40;51.10
39751;DHT22;37579;51.074;17.004;2023-04-03T09:37:43;24.40;51.10
39751;DHT22;37579;51.074;17.004;2023-04-03T09:40:29;24.40;51.10
39751;DHT22;37579;51.074;17.004;2023-04-03T09:43:00;24.40;51.10
39751;DHT22;37579;51.074;17.004;2023-04-03T09:45:33;24.40;51.10
39751;DHT22;37579;51.074;17.004;2023-04-03T09:48:17;24.40;51.10
39751;DHT22;37579;51.074;17.004;2023-04-03T09:50:58;24.40;51.10
39751;DHT22;37579;51.074;17.004;2023-04-03T09:55:55;24.40;51.20
39751;DHT22;37579;51.074;17.004;2023-04-03T09:58:33;24.30;51.30
39751;DHT22;37579;51.074;17.004;2023-04-03T10:01:02;24.30;51.30
39751;DHT22;37579;51.074;17.004;2023-04-03T10:03:32;24.30;51.40
39751;DHT22;37579;51.074;17.004;2023-04-03T10:06:01;24.30;51.50
39751;DHT22;37579;51.074;17.004;2023-04-03T10:08:36;24.20;51.80
39751;DHT22;37579;51.074;17.004;2023-04-03T10:13:54;24.30;52.60
39751;DHT22;37579;51.074;17.004;2023-04-03T10:30:40;24.20;42.30
39751;DHT22;37579;51.074;17.004;2023-04-03T10:36:10;24.00;46.10
39751;DHT22;37579;51.074;17.004;2023-04-03T10:44:20;23.80;43.10
39751;DHT22;37579;51.074;17.004;2023-04-03T10:46:59;23.90;44.40
39751;DHT22;37579;51.074;17.004;2023-04-03T10:52:43;24.00;44.90
39751;DHT22;37579;51.074;17.004;2023-04-03T10:58:03;24.10;45.10
39751;DHT22;37579;51.074;17.004;2023-04-03T11:00:43;24.20;44.50
39751;DHT22;37579;51.074;17.004;2023-04-03T11:03:17;24.20;44.60
39751;DHT22;37579;51.074;17.004;2023-04-03T11:05:51;24.20;44.70
39751;DHT22;37579;51.074;17.004;2023-04-03T11:11:09;24.20;45.50
39751;DHT22;37579;51.074;17.004;2023-04-03T11:13:54;24.20;46.00
39751;DHT22;37579;51.074;17.004;2023-04-03T11:16:26;24.30;46.60
39751;DHT22;37579;51.074;17.004;2023-04-03T11:19:29;24.20;47.10
39751;DHT22;37579;51.074;17.004;2023-04-03T11:22:03;24.20;47.70
39751;DHT22;37579;51.074;17.004;2023-04-03T11:24:32;24.20;48.10
39751;DHT22;37579;51.074;17.004;2023-04-03T11:27:00;24.20;48.80
39751;DHT22;37579;51.074;17.004;2023-04-03T11:29:38;24.20;49.50
39751;DHT22;37579;51.074;17.004;2023-04-03T11:34:46;24.20;50.10
39751;DHT22;37579;51.074;17.004;2023-04-03T11:37:15;24.20;50.20
39751;DHT22;37579;51.074;17.004;2023-04-03T11:39:51;24.20;50.30
39751;DHT22;37579;51.074;17.004;2023-04-03T11:42:28;24.20;50.60
39751;DHT22;37579;51.074;17.004;2023-04-03T11:47:57;24.20;51.10
39751;DHT22;37579;51.074;17.004;2023-04-03T11:52:58;24.20;51.50
39751;DHT22;37579;51.074;17.004;2023-04-03T12:32:23;24.40;51.30
39751;DHT22;37579;51.074;17.004;2023-04-03T12:35:05;24.20;51.40
39751;DHT22;37579;51.074;17.004;2023-04-03T12:40:37;24.20;51.60
39751;DHT22;37579;51.074;17.004;2023-04-03T12:48:28;24.10;51.70
39751;DHT22;37579;51.074;17.004;2023-04-03T12:50:55;24.10;51.70
39751;DHT22;37579;51.074;17.004;2023-04-03T12:53:36;24.10;51.70
39751;DHT22;37579;51.074;17.004;2023-04-03T12:56:28;24.10;51.80
39751;DHT22;37579;51.074;17.004;2023-04-03T12:58:57;24.10;51.80
39751;DHT22;37579;51.074;17.004;2023-04-03T13:01:37;23.30;38.10
39751;DHT22;37579;51.074;17.004;2023-04-03T13:04:03;23.70;49.50
39751;DHT22;37579;51.074;17.004;2023-04-03T13:06:41;23.80;48.70
39751;DHT22;37579;51.074;17.004;2023-04-03T13:11:51;23.90;49.40
39751;DHT22;37579;51.074;17.004;2023-04-03T13:14:22;24.00;49.60
39751;DHT22;37579;51.074;17.004;2023-04-03T13:17:14;24.00;49.70
39751;DHT22;37579;51.074;17.004;2023-04-03T13:19:41;24.00;49.90
39751;DHT22;37579;51.074;17.004;2023-04-03T13:24:55;23.90;50.10
39751;DHT22;37579;51.074;17.004;2023-04-03T13:27:22;23.90;50.20
39751;DHT22;37579;51.074;17.004;2023-04-03T13:29:54;23.90;50.40
39751;DHT22;37579;51.074;17.004;2023-04-03T13:32:24;23.90;50.60
39751;DHT22;37579;51.074;17.004;2023-04-03T13:34:50;23.90;50.50
39751;DHT22;37579;51.074;17.004;2023-04-03T13:37:32;23.90;50.80
39751;DHT22;37579;51.074;17.004;2023-04-03T13:40:03;23.90;51.00
39751;DHT22;37579;51.074;17.004;2023-04-03T13:42:38;23.90;51.00
39751;DHT22;37579;51.074;17.004;2023-04-03T13:45:30;23.90;51.00
39751;DHT22;37579;51.074;17.004;2023-04-03T13:48:18;23.90;51.20
39751;DHT22;37579;51.074;17.004;2023-04-03T13:51:06;23.90;51.10
39751;DHT22;37579;51.074;17.004;2023-04-03T13:56:25;23.90;51.30
39751;DHT22;37579;51.074;17.004;2023-04-03T13:59:02;23.90;51.30
39751;DHT22;37579;51.074;17.004;2023-04-03T14:04:15;23.90;51.50
39751;DHT22;37579;51.074;17.004;2023-04-03T14:06:42;23.90;51.40
39751;DHT22;37579;51.074;17.004;2023-04-03T14:09:08;23.80;51.50
39751;DHT22;37579;51.074;17.004;2023-04-03T14:11:34;23.80;51.50
39751;DHT22;37579;51.074;17.004;2023-04-03T14:14:09;23.80;51.40
39751;DHT22;37579;51.074;17.004;2023-04-03T14:16:39;23.80;51.30
39751;DHT22;37579;51.074;17.004;2023-04-03T14:19:06;23.90;51.50
39751;DHT22;37579;51.074;17.004;2023-04-03T14:21:33;24.00;51.30
39751;DHT22;37579;51.074;17.004;2023-04-03T14:23:59;24.10;51.10
39751;DHT22;37579;51.074;17.004;2023-04-03T14:26:25;24.20;51.00
39751;DHT22;37579;51.074;17.004;2023-04-03T14:28:54;24.20;51.10
39751;DHT22;37579;51.074;17.004;2023-04-03T14:31:24;24.20;51.10
39751;DHT22;37579;51.074;17.004;2023-04-03T14:33:50;24.30;51.30
39751;DHT22;37579;51.074;17.004;2023-04-03T14:36:19;24.30;51.50
39751;DHT22;37579;51.074;17.004;2023-04-03T14:38:47;24.40;51.70
39751;DHT22;37579;51.074;17.004;2023-04-03T14:41:15;24.40;51.80
39751;DHT22;37579;51.074;17.004;2023-04-03T14:43:42;24.40;51.90
39751;DHT22;37579;51.074;17.004;2023-04-03T14:46:22;24.50;51.60
39751;DHT22;37579;51.074;17.004;2023-04-03T14:48:49;24.50;51.70
39751;DHT22;37579;51.074;17.004;2023-04-03T14:51:15;24.50;52.00
39751;DHT22;37579;51.074;17.004;2023-04-03T14:53:42;24.60;52.20
39751;DHT22;37579;51.074;17.004;2023-04-03T14:56:21;24.60;52.30
39751;DHT22;37579;51.074;17.004;2023-04-03T14:58:57;24.60;52.30
39751;DHT22;37579;51.074;17.004;2023-04-03T15:01:23;24.60;52.40
39751;DHT22;37579;51.074;17.004;2023-04-03T15:03:49;24.60;52.50
39751;DHT22;37579;51.074;17.004;2023-04-03T15:06:15;24.60;53.30
39751;DHT22;37579;51.074;17.004;2023-04-03T15:08:42;24.60;52.70
39751;DHT22;37579;51.074;17.004;2023-04-03T15:11:10;24.60;53.00
39751;DHT22;37579;51.074;17.004;2023-04-03T15:13:37;24.60;53.10
39751;DHT22;37579;51.074;17.004;2023-04-03T15:16:05;24.70;53.10
39751;DHT22;37579;51.074;17.004;2023-04-03T15:18:35;24.60;53.20
39751;DHT22;37579;51.074;17.004;2023-04-03T15:21:04;24.60;53.20
39751;DHT22;37579;51.074;17.004;2023-04-03T15:23:30;24.60;53.20
39751;DHT22;37579;51.074;17.004;2023-04-03T15:25:56;24.60;53.20
39751;DHT22;37579;51.074;17.004;2023-04-03T15:28:30;24.60;53.30
39751;DHT22;37579;51.074;17.004;2023-04-03T15:30:57;24.50;53.30
39751;DHT22;37579;51.074;17.004;2023-04-03T15:33:23;24.40;53.30
39751;DHT22;37579;51.074;17.004;2023-04-03T15:35:49;24.40;53.50
39751;DHT22;37579;51.074;17.004;2023-04-03T15:38:15;24.40;53.60
39751;DHT22;37579;51.074;17.004;2023-04-03T15:40:41;24.40;53.60
39751;DHT22;37579;51.074;17.004;2023-04-03T15:43:08;24.40;53.70
39751;DHT22;37579;51.074;17.004;2023-04-03T15:45:35;24.40;53.70
39751;DHT22;37579;51.074;17.004;2023-04-03T15:48:03;24.40;53.80
39751;DHT22;37579;51.074;17.004;2023-04-03T15:50:37;24.40;54.00
39751;DHT22;37579;51.074;17.004;2023-04-03T15:53:03;24.40;54.00
39751;DHT22;37579;51.074;17.004;2023-04-03T15:55:32;24.40;53.80
39751;DHT22;37579;51.074;17.004;2023-04-03T15:57:59;24.40;53.70
39751;DHT22;37579;51.074;17.004;2023-04-03T16:00:25;24.40;53.50
39751;DHT22;37579;51.074;17.004;2023-04-03T16:03:00;24.30;53.80
39751;DHT22;37579;51.074;17.004;2023-04-03T16:05:30;24.40;53.90
39751;DHT22;37579;51.074;17.004;2023-04-03T16:07:57;24.40;53.90
39751;DHT22;37579;51.074;17.004;2023-04-03T16:10:23;24.40;53.80
39751;DHT22;37579;51.074;17.004;2023-04-03T16:12:49;24.40;53.60
39751;DHT22;37579;51.074;17.004;2023-04-03T16:15:15;24.50;53.40
39751;DHT22;37579;51.074;17.004;2023-04-03T16:17:41;24.50;53.40
39751;DHT22;37579;51.074;17.004;2023-04-03T16:20:09;24.60;53.40
39751;DHT22;37579;51.074;17.004;2023-04-03T16:22:36;24.50;53.30
39751;DHT22;37579;51.074;17.004;2023-04-03T16:25:02;24.50;53.30
39751;DHT22;37579;51.074;17.004;2023-04-03T16:27:28;24.60;53.60
39751;DHT22;37579;51.074;17.004;2023-04-03T16:29:59;24.60;53.60
39751;DHT22;37579;51.074;17.004;2023-04-03T16:32:28;24.60;53.70
39751;DHT22;37579;51.074;17.004;2023-04-03T16:34:54;24.60;53.70
39751;DHT22;37579;51.074;17.004;2023-04-03T16:37:21;24.60;53.80
39751;DHT22;37579;51.074;17.004;2023-04-03T16:39:47;24.70;53.90
39751;DHT22;37579;51.074;17.004;2023-04-03T16:42:12;24.60;54.10
39751;DHT22;37579;51.074;17.004;2023-04-03T16:44:38;24.60;54.50
39751;DHT22;37579;51.074;17.004;2023-04-03T16:47:06;24.70;54.70
39751;DHT22;37579;51.074;17.004;2023-04-03T16:49:34;24.70;54.90
39751;DHT22;37579;51.074;17.004;2023-04-03T16:52:01;24.60;55.00
39751;DHT22;37579;51.074;17.004;2023-04-03T16:54:28;24.60;55.10
39751;DHT22;37579;51.074;17.004;2023-04-03T16:56:54;24.70;55.10
39751;DHT22;37579;51.074;17.004;2023-04-03T16:59:20;24.60;55.10
39751;DHT22;37579;51.074;17.004;2023-04-03T17:01:45;24.70;55.30
39751;DHT22;37579;51.074;17.004;2023-04-03T17:04:11;24.60;55.50
39751;DHT22;37579;51.074;17.004;2023-04-03T17:06:38;24.60;55.50
39751;DHT22;37579;51.074;17.004;2023-04-03T17:09:05;24.60;55.80
39751;DHT22;37579;51.074;17.004;2023-04-03T17:11:32;24.60;55.80
39751;DHT22;37579;51.074;17.004;2023-04-03T17:13:58;24.60;55.90
39751;DHT22;37579;51.074;17.004;2023-04-03T17:16:25;24.60;55.80
39751;DHT22;37579;51.074;17.004;2023-04-03T17:18:52;24.50;56.00
39751;DHT22;37579;51.074;17.004;2023-04-03T17:21:19;24.40;56.00
39751;DHT22;37579;51.074;17.004;2023-04-03T17:23:49;24.50;56.00
39751;DHT22;37579;51.074;17.004;2023-04-03T17:26:16;24.50;55.90
39751;DHT22;37579;51.074;17.004;2023-04-03T17:28:42;24.50;55.70
39751;DHT22;37579;51.074;17.004;2023-04-03T17:31:08;24.60;55.70